Time;durP1;ratioP1;P1;durP2;ratioP2;P2;SDS_P1;SDS_P2;PMS_P1;PMS_P2;Temp;Humidity;BMP_temperature;BMP_pressure;BME280_temperature;BME280_humidity;BME280_pressure;Samples;Min_cycle;Max_cycle;Signal;HPM_P1;HPM_P2
2021/09/28 00:00:11;;;;;;;10.00;9.00;;;;;;;;;;5010910;28;20281;-72
2021/09/28 00:02:37;;;;;;;10.10;9.15;;;;;;;;;;5006688;28;20265;-73
2021/09/28 00:05:02;;;;;;;10.70;9.63;;;;;;;;;;4993434;28;20052;-73
2021/09/28 00:07:27;;;;;;;10.50;9.50;;;;;;;;;;4993463;28;20037;-72
2021/09/28 00:09:53;;;;;;;10.25;9.32;;;;;;;;;;4991237;28;20072;-72
2021/09/28 00:12:18;;;;;;;9.90;9.00;;;;;;;;;;4994665;28;20065;-73
2021/09/28 00:14:44;;;;;;;11.20;9.32;;;;;;;;;;4993715;28;20024;-73
2021/09/28 00:17:09;;;;;;;11.20;10.13;;;;;;;;;;5006251;28;20384;-72
2021/09/28 00:19:34;;;;;;;10.13;8.35;;;;;;;;;;5008805;28;20025;-72
2021/09/28 00:22:00;;;;;;;10.20;9.10;;;;;;;;;;5011133;28;20050;-72
2021/09/28 00:24:25;;;;;;;9.77;8.88;;;;;;;;;;5001063;28;20357;-73
2021/09/28 00:26:50;;;;;;;10.55;9.55;;;;;;;;;;4991092;28;20038;-73
2021/09/28 00:29:15;;;;;;;10.15;9.23;;;;;;;;;;4993026;28;20048;-72
2021/09/28 00:31:40;;;;;;;9.63;8.60;;;;;;;;;;5006807;28;20030;-72
2021/09/28 00:34:06;;;;;;;9.73;8.87;;;;;;;;;;4994088;28;20299;-73
2021/09/28 00:36:31;;;;;;;10.10;9.03;;;;;;;;;;5008219;28;20292;-73
2021/09/28 00:38:56;;;;;;;10.45;9.40;;;;;;;;;;4993047;28;20293;-73
2021/09/28 00:41:21;;;;;;;10.27;9.38;;;;;;;;;;5010883;28;20026;-73
2021/09/28 00:43:57;;;;;;;10.75;9.65;;;;;;;;;;5011844;28;20041;-73
2021/09/28 00:46:22;;;;;;;11.00;10.00;;;;;;;;;;5010296;28;20028;-73
2021/09/28 00:48:48;;;;;;;10.43;9.43;;;;;;;;;;4993914;28;20026;-73
2021/09/28 00:51:14;;;;;;;10.70;9.70;;;;;;;;;;4993662;28;20030;-73
2021/09/28 00:53:40;;;;;;;11.48;10.30;;;;;;;;;;5006088;28;20026;-73
2021/09/28 00:56:06;;;;;;;11.18;10.15;;;;;;;;;;5010698;28;20563;-73
2021/09/28 00:58:32;;;;;;;11.55;10.40;;;;;;;;;;5011186;28;20076;-72
2021/09/28 01:01:01;;;;;;;10.93;9.88;;;;;;;;;;4993412;28;20018;-73
2021/09/28 01:03:26;;;;;;;12.02;10.43;;;;;;;;;;4976055;28;20426;-73
2021/09/28 01:05:52;;;;;;;12.48;11.10;;;;;;;;;;5010641;28;20110;-73
2021/09/28 01:08:17;;;;;;;10.55;9.55;;;;;;;;;;5009370;28;20076;-73
2021/09/28 01:10:42;;;;;;;12.80;10.20;;;;;;;;;;4987111;28;20034;-73
2021/09/28 01:13:07;;;;;;;11.27;9.75;;;;;;;;;;5010255;28;20749;-73
2021/09/28 01:15:32;;;;;;;12.10;10.10;;;;;;;;;;4993385;28;20041;-73
2021/09/28 01:17:57;;;;;;;10.27;9.27;;;;;;;;;;5003600;28;20074;-73
2021/09/28 01:20:23;;;;;;;11.60;10.47;;;;;;;;;;4985566;28;20109;-73
2021/09/28 01:22:48;;;;;;;11.30;9.50;;;;;;;;;;4991536;28;20620;-73
2021/09/28 01:25:13;;;;;;;11.10;9.90;;;;;;;;;;5008373;28;20295;-73
2021/09/28 01:27:39;;;;;;;10.90;9.80;;;;;;;;;;4995940;28;20026;-71
2021/09/28 01:30:06;;;;;;;11.98;10.00;;;;;;;;;;4995161;28;20030;-73
2021/09/28 01:32:31;;;;;;;10.00;9.10;;;;;;;;;;5014505;28;20068;-72
2021/09/28 01:34:57;;;;;;;11.02;9.93;;;;;;;;;;4995897;28;20107;-72
2021/09/28 01:37:22;;;;;;;10.85;9.77;;;;;;;;;;4996270;28;20077;-72
2021/09/28 01:39:47;;;;;;;10.05;8.80;;;;;;;;;;5006110;28;20113;-73
2021/09/28 01:42:12;;;;;;;10.63;9.50;;;;;;;;;;5014564;28;20093;-73
2021/09/28 01:44:37;;;;;;;10.98;9.80;;;;;;;;;;5009884;28;20044;-73
2021/09/28 01:47:03;;;;;;;10.48;9.38;;;;;;;;;;5012682;28;20388;-73
2021/09/28 01:49:28;;;;;;;10.90;9.25;;;;;;;;;;4994630;28;20117;-73
2021/09/28 01:51:53;;;;;;;10.52;9.45;;;;;;;;;;4997627;28;20491;-72
2021/09/28 01:54:18;;;;;;;10.07;9.18;;;;;;;;;;5012559;28;20084;-72
2021/09/28 01:56:44;;;;;;;11.13;9.65;;;;;;;;;;4993937;28;20113;-74
2021/09/28 01:59:09;;;;;;;10.27;9.27;;;;;;;;;;4993972;28;20029;-73
2021/09/28 02:01:34;;;;;;;10.85;9.80;;;;;;;;;;4992653;28;20488;-74
2021/09/28 02:04:00;;;;;;;11.18;9.65;;;;;;;;;;4993311;28;20030;-74
2021/09/28 02:06:26;;;;;;;9.77;8.85;;;;;;;;;;4992322;28;20019;-72
2021/09/28 02:08:51;;;;;;;10.63;9.48;;;;;;;;;;4977914;28;20125;-72
2021/09/28 02:11:16;;;;;;;12.18;9.45;;;;;;;;;;4993745;28;20053;-72
2021/09/28 02:13:42;;;;;;;13.88;10.18;;;;;;;;;;4994835;28;20126;-72
2021/09/28 02:16:07;;;;;;;14.55;10.18;;;;;;;;;;4991274;28;20065;-72
2021/09/28 02:18:33;;;;;;;12.05;9.98;;;;;;;;;;4990734;28;20077;-72
2021/09/28 02:20:58;;;;;;;12.30;10.45;;;;;;;;;;4990679;28;20053;-72
2021/09/28 02:23:23;;;;;;;11.23;10.02;;;;;;;;;;4958986;28;20023;-74
2021/09/28 02:25:48;;;;;;;11.88;10.40;;;;;;;;;;4991506;28;20107;-73
2021/09/28 02:28:13;;;;;;;12.50;9.70;;;;;;;;;;4992164;28;20080;-73
2021/09/28 02:30:39;;;;;;;11.90;9.55;;;;;;;;;;4975739;28;20301;-73
2021/09/28 02:33:05;;;;;;;10.93;9.77;;;;;;;;;;4992941;28;20081;-73
2021/09/28 02:35:30;;;;;;;11.18;9.68;;;;;;;;;;4990532;28;20034;-73
2021/09/28 02:37:56;;;;;;;9.68;8.77;;;;;;;;;;4994111;28;20244;-73
2021/09/28 02:40:22;;;;;;;10.95;9.38;;;;;;;;;;4992431;28;20473;-72
2021/09/28 02:42:47;;;;;;;10.23;9.10;;;;;;;;;;4992667;28;20027;-73
2021/09/28 02:45:12;;;;;;;9.95;8.95;;;;;;;;;;4994397;28;20021;-72
2021/09/28 02:47:37;;;;;;;10.98;9.88;;;;;;;;;;4990525;28;20026;-74
2021/09/28 02:50:03;;;;;;;12.38;10.00;;;;;;;;;;4991578;28;20160;-74
2021/09/28 02:52:28;;;;;;;14.60;9.93;;;;;;;;;;4989283;28;20019;-74
2021/09/28 02:54:53;;;;;;;10.75;9.27;;;;;;;;;;4990489;28;20030;-73
2021/09/28 02:57:19;;;;;;;12.27;8.97;;;;;;;;;;5011001;28;20049;-73
2021/09/28 02:59:44;;;;;;;12.95;8.85;;;;;;;;;;4978293;28;20791;-73
2021/09/28 03:02:09;;;;;;;10.95;9.27;;;;;;;;;;4995736;28;20368;-73
2021/09/28 03:04:35;;;;;;;11.33;10.23;;;;;;;;;;5012935;28;20058;-72
2021/09/28 03:07:00;;;;;;;9.45;8.55;;;;;;;;;;4994065;28;20635;-72
2021/09/28 03:09:25;;;;;;;9.38;8.07;;;;;;;;;;5008277;28;20474;-72
2021/09/28 03:11:50;;;;;;;9.07;8.18;;;;;;;;;;5012540;28;20025;-73
2021/09/28 03:14:15;;;;;;;8.30;7.50;;;;;;;;;;5012410;28;20048;-73
2021/09/28 03:16:41;;;;;;;9.93;8.93;;;;;;;;;;5013612;28;20022;-73
2021/09/28 03:19:06;;;;;;;9.00;8.20;;;;;;;;;;5012117;28;20038;-73
2021/09/28 03:21:31;;;;;;;9.20;7.72;;;;;;;;;;4996240;28;20112;-74
2021/09/28 03:23:57;;;;;;;8.02;7.32;;;;;;;;;;4990836;28;20118;-74
2021/09/28 03:26:22;;;;;;;8.65;7.85;;;;;;;;;;4975308;28;20457;-74
2021/09/28 03:28:47;;;;;;;12.32;7.97;;;;;;;;;;5008965;28;20093;-74
2021/09/28 03:31:12;;;;;;;9.50;7.38;;;;;;;;;;5006592;28;20504;-73
2021/09/28 03:33:38;;;;;;;8.52;7.78;;;;;;;;;;5009981;28;20101;-73
2021/09/28 03:36:03;;;;;;;9.38;8.02;;;;;;;;;;4994878;28;20400;-72
2021/09/28 03:38:29;;;;;;;9.20;7.32;;;;;;;;;;5012971;28;20515;-72
2021/09/28 03:40:54;;;;;;;9.02;8.13;;;;;;;;;;4994432;28;20076;-73
2021/09/28 03:43:19;;;;;;;8.80;7.93;;;;;;;;;;5012435;28;20444;-72
2021/09/28 03:45:44;;;;;;;8.43;7.45;;;;;;;;;;5000185;28;20432;-72
2021/09/28 03:48:09;;;;;;;9.00;8.07;;;;;;;;;;4978411;28;20022;-73
2021/09/28 03:50:35;;;;;;;9.32;7.80;;;;;;;;;;4993492;28;20028;-72
2021/09/28 03:53:00;;;;;;;9.52;8.52;;;;;;;;;;5011750;28;20030;-74
2021/09/28 03:55:25;;;;;;;7.60;6.72;;;;;;;;;;5012840;28;20085;-73
2021/09/28 03:57:51;;;;;;;10.68;7.65;;;;;;;;;;4995014;28;20076;-72
2021/09/28 04:00:18;;;;;;;8.63;7.72;;;;;;;;;;5011147;28;20057;-72
2021/09/28 04:02:43;;;;;;;8.27;7.40;;;;;;;;;;4993424;28;20025;-73
2021/09/28 04:05:09;;;;;;;9.48;8.40;;;;;;;;;;5006308;28;20025;-73
2021/09/28 04:07:35;;;;;;;10.15;8.70;;;;;;;;;;5012203;28;20038;-73
2021/09/28 04:10:01;;;;;;;9.32;8.38;;;;;;;;;;4993255;28;20048;-73
2021/09/28 04:12:26;;;;;;;10.32;8.00;;;;;;;;;;5012847;28;20018;-73
2021/09/28 04:14:53;;;;;;;10.02;8.85;;;;;;;;;;4993417;28;20038;-73
2021/09/28 04:17:18;;;;;;;9.88;8.88;;;;;;;;;;5009969;28;20030;-73
2021/09/28 04:19:43;;;;;;;12.37;9.60;;;;;;;;;;4987835;28;20103;-73
2021/09/28 04:22:09;;;;;;;13.47;11.87;;;;;;;;;;5005941;28;20327;-74
2021/09/28 04:24:34;;;;;;;15.07;13.45;;;;;;;;;;4999746;28;20288;-73
2021/09/28 04:26:59;;;;;;;14.98;12.93;;;;;;;;;;5011352;28;20022;-73
2021/09/28 04:29:24;;;;;;;17.33;15.50;;;;;;;;;;4994744;28;20021;-72
2021/09/28 04:31:49;;;;;;;15.00;13.07;;;;;;;;;;5011746;28;20042;-72
2021/09/28 04:34:15;;;;;;;16.98;14.65;;;;;;;;;;4994508;28;20281;-73
2021/09/28 04:36:40;;;;;;;19.17;17.17;;;;;;;;;;4991866;28;20030;-73
2021/09/28 04:39:05;;;;;;;18.60;16.55;;;;;;;;;;4993607;28;20037;-73
2021/09/28 04:41:30;;;;;;;17.25;14.20;;;;;;;;;;5010972;28;20103;-73
2021/09/28 04:43:55;;;;;;;16.58;14.85;;;;;;;;;;4994500;28;20053;-73
2021/09/28 04:46:21;;;;;;;14.18;11.35;;;;;;;;;;4991460;28;20017;-73
2021/09/28 04:48:46;;;;;;;14.20;12.50;;;;;;;;;;5011372;28;20060;-73
2021/09/28 04:51:11;;;;;;;9.90;9.02;;;;;;;;;;4991945;28;20036;-73
2021/09/28 04:53:37;;;;;;;9.07;8.35;;;;;;;;;;4973030;28;20034;-72
2021/09/28 04:56:02;;;;;;;6.72;6.22;;;;;;;;;;5010604;28;20104;-73
2021/09/28 04:58:27;;;;;;;8.57;7.60;;;;;;;;;;5008695;28;20036;-73
2021/09/28 05:00:53;;;;;;;6.95;6.47;;;;;;;;;;5010625;28;20033;-72
2021/09/28 05:03:18;;;;;;;5.60;4.78;;;;;;;;;;4993192;28;20026;-73
2021/09/28 05:05:43;;;;;;;6.22;5.65;;;;;;;;;;5010602;28;20392;-73
2021/09/28 05:08:09;;;;;;;5.28;4.63;;;;;;;;;;5008462;28;20543;-75
2021/09/28 05:10:34;;;;;;;3.90;3.58;;;;;;;;;;4991876;28;20527;-76
2021/09/28 05:12:59;;;;;;;6.07;4.50;;;;;;;;;;5011590;28;20048;-74
2021/09/28 05:15:24;;;;;;;4.80;4.40;;;;;;;;;;4976775;28;20033;-73
2021/09/28 05:17:50;;;;;;;4.28;3.97;;;;;;;;;;4992167;28;20037;-74
2021/09/28 05:20:15;;;;;;;2.72;2.38;;;;;;;;;;5009788;28;20034;-74
2021/09/28 05:22:40;;;;;;;5.03;4.53;;;;;;;;;;5009253;28;20097;-73
2021/09/28 05:25:05;;;;;;;5.95;5.45;;;;;;;;;;4973980;28;20084;-75
2021/09/28 05:27:31;;;;;;;3.50;3.20;;;;;;;;;;5004337;28;20392;-73
2021/09/28 05:29:56;;;;;;;7.15;6.45;;;;;;;;;;4986383;28;20402;-73
2021/09/28 05:32:21;;;;;;;7.15;6.40;;;;;;;;;;4992019;28;20029;-72
2021/09/28 05:34:46;;;;;;;8.38;7.10;;;;;;;;;;5008321;28;20058;-73
2021/09/28 05:37:12;;;;;;;8.93;8.20;;;;;;;;;;5010942;28;20095;-73
2021/09/28 05:39:37;;;;;;;8.95;7.95;;;;;;;;;;4991588;28;20428;-74
2021/09/28 05:42:02;;;;;;;9.05;8.45;;;;;;;;;;4975637;28;20014;-72
2021/09/28 05:44:27;;;;;;;10.07;9.07;;;;;;;;;;4988030;28;20026;-72
2021/09/28 05:46:52;;;;;;;8.82;8.02;;;;;;;;;;4984291;28;20031;-73
2021/09/28 05:49:18;;;;;;;9.02;8.18;;;;;;;;;;5000885;28;20523;-72
2021/09/28 05:51:50;;;;;;;9.00;8.10;;;;;;;;;;5003960;28;20026;-73
2021/09/28 05:54:18;;;;;;;9.85;8.80;;;;;;;;;;4998483;28;20106;-74
2021/09/28 05:56:44;;;;;;;9.95;8.93;;;;;;;;;;4987210;28;20141;-74
2021/09/28 05:59:09;;;;;;;10.20;9.40;;;;;;;;;;5003942;28;20177;-74
2021/09/28 06:01:35;;;;;;;10.00;9.23;;;;;;;;;;4989278;28;20472;-75
2021/09/28 06:04:00;;;;;;;9.88;9.02;;;;;;;;;;5004501;28;20026;-73
2021/09/28 06:06:27;;;;;;;7.63;7.03;;;;;;;;;;5000369;28;20028;-74
2021/09/28 06:08:52;;;;;;;9.15;8.35;;;;;;;;;;5003561;28;20284;-72
2021/09/28 06:11:18;;;;;;;9.18;8.30;;;;;;;;;;5004593;28;20022;-72
2021/09/28 06:13:43;;;;;;;8.23;7.47;;;;;;;;;;5013188;28;20026;-73
2021/09/28 06:16:08;;;;;;;8.82;7.95;;;;;;;;;;5012561;28;20030;-73
2021/09/28 06:18:33;;;;;;;10.23;8.27;;;;;;;;;;5012115;28;20487;-74
2021/09/28 06:20:58;;;;;;;8.73;7.70;;;;;;;;;;5008861;28;20025;-73
2021/09/28 06:23:24;;;;;;;10.65;9.75;;;;;;;;;;4994166;28;20375;-72
2021/09/28 06:25:49;;;;;;;3.90;3.55;;;;;;;;;;4999579;28;20049;-73
2021/09/28 06:28:14;;;;;;;8.05;7.45;;;;;;;;;;5010907;28;20073;-73
2021/09/28 06:30:39;;;;;;;4.85;4.20;;;;;;;;;;5012005;28;20502;-73
2021/09/28 06:33:04;;;;;;;8.50;7.70;;;;;;;;;;5011943;28;20473;-72
2021/09/28 06:35:30;;;;;;;7.03;6.32;;;;;;;;;;5013717;28;20056;-72
2021/09/28 06:37:55;;;;;;;9.35;8.43;;;;;;;;;;5016913;28;20034;-73
2021/09/28 06:40:20;;;;;;;9.98;7.50;;;;;;;;;;4994790;28;20372;-72
2021/09/28 06:42:45;;;;;;;10.52;9.73;;;;;;;;;;5009919;28;20017;-72
2021/09/28 06:45:11;;;;;;;9.15;8.45;;;;;;;;;;4990849;28;20400;-73
2021/09/28 06:47:36;;;;;;;9.43;8.55;;;;;;;;;;5006320;28;20041;-74
2021/09/28 06:50:01;;;;;;;10.70;9.20;;;;;;;;;;5009748;28;20037;-72
2021/09/28 06:52:26;;;;;;;9.27;8.45;;;;;;;;;;5012412;28;20038;-71
2021/09/28 06:54:51;;;;;;;9.55;8.57;;;;;;;;;;5011277;28;20404;-72
2021/09/28 06:57:17;;;;;;;8.60;7.75;;;;;;;;;;5013141;28;20120;-73
2021/09/28 06:59:42;;;;;;;9.82;8.88;;;;;;;;;;5011301;28;20495;-73
2021/09/28 07:02:07;;;;;;;9.25;8.45;;;;;;;;;;4990779;28;20025;-73
2021/09/28 07:04:32;;;;;;;8.68;7.57;;;;;;;;;;4992098;28;20033;-73
2021/09/28 07:06:59;;;;;;;7.35;6.72;;;;;;;;;;5011074;28;20485;-73
2021/09/28 07:09:24;;;;;;;9.45;7.72;;;;;;;;;;4995504;28;20032;-73
2021/09/28 07:11:49;;;;;;;8.57;7.78;;;;;;;;;;4993714;28;20026;-73
2021/09/28 07:14:15;;;;;;;8.60;7.82;;;;;;;;;;4995397;28;20034;-73
2021/09/28 07:16:41;;;;;;;9.20;8.02;;;;;;;;;;4993490;28;20034;-73
2021/09/28 07:19:06;;;;;;;8.93;8.10;;;;;;;;;;5013688;28;20476;-73
2021/09/28 07:21:31;;;;;;;6.18;5.25;;;;;;;;;;4993335;28;20040;-74
2021/09/28 07:23:56;;;;;;;5.05;3.47;;;;;;;;;;4978482;28;20030;-71
2021/09/28 07:26:22;;;;;;;4.78;4.25;;;;;;;;;;5007814;28;20420;-72
2021/09/28 07:28:47;;;;;;;4.82;3.97;;;;;;;;;;5013041;28;20022;-73
2021/09/28 07:31:12;;;;;;;4.32;3.10;;;;;;;;;;4995168;28;20030;-72
2021/09/28 07:33:37;;;;;;;3.80;2.70;;;;;;;;;;4995677;28;20113;-72
2021/09/28 07:36:05;;;;;;;2.33;2.05;;;;;;;;;;5012267;28;20120;-71
2021/09/28 07:38:30;;;;;;;3.50;3.20;;;;;;;;;;4995009;28;20026;-71
2021/09/28 07:40:58;;;;;;;5.35;3.15;;;;;;;;;;4994634;28;20029;-72
2021/09/28 07:43:27;;;;;;;2.53;2.33;;;;;;;;;;4995974;28;20081;-75
2021/09/28 07:45:52;;;;;;;4.95;2.47;;;;;;;;;;5012929;28;20029;-74
2021/09/28 07:48:18;;;;;;;2.58;1.23;;;;;;;;;;4993724;28;20026;-74
2021/09/28 07:50:46;;;;;;;1.90;1.10;;;;;;;;;;4993238;28;20030;-73
2021/09/28 07:53:17;;;;;;;3.88;1.33;;;;;;;;;;5010488;28;20380;-75
2021/09/28 07:55:42;;;;;;;1.98;1.10;;;;;;;;;;4983758;28;20050;-74
2021/09/28 07:58:08;;;;;;;2.42;0.57;;;;;;;;;;4985946;28;20508;-73
2021/09/28 08:00:33;;;;;;;1.23;0.70;;;;;;;;;;4992081;28;20026;-73
2021/09/28 08:02:58;;;;;;;1.27;0.80;;;;;;;;;;4991878;28;20403;-73
2021/09/28 08:05:23;;;;;;;1.85;1.10;;;;;;;;;;4985919;28;20495;-72
2021/09/28 08:07:49;;;;;;;1.45;1.00;;;;;;;;;;4993355;28;20507;-78
2021/09/28 08:10:17;;;;;;;1.30;0.82;;;;;;;;;;4991246;28;20057;-74
2021/09/28 08:12:42;;;;;;;1.77;0.80;;;;;;;;;;4992154;28;20037;-73
2021/09/28 08:15:08;;;;;;;2.45;1.10;;;;;;;;;;4992647;28;20179;-74
2021/09/28 08:17:33;;;;;;;0.90;0.60;;;;;;;;;;4975651;28;20027;-75
2021/09/28 08:19:59;;;;;;;1.67;0.70;;;;;;;;;;4990916;28;20030;-73
2021/09/28 08:22:24;;;;;;;0.82;0.30;;;;;;;;;;4992664;28;20032;-74
2021/09/28 08:24:52;;;;;;;1.15;0.40;;;;;;;;;;4992414;28;20519;-73
2021/09/28 08:30:05;;;;;;;3.10;0.45;;;;;;;;;;4992717;28;20064;-74
2021/09/28 08:32:30;;;;;;;2.88;0.40;;;;;;;;;;4991556;28;20449;-73
2021/09/28 08:34:55;;;;;;;2.20;0.50;;;;;;;;;;4990980;28;20030;-72
2021/09/28 08:37:20;;;;;;;2.95;0.60;;;;;;;;;;4992658;28;20027;-73
2021/09/28 08:39:46;;;;;;;1.88;0.60;;;;;;;;;;4991333;28;20065;-74
2021/09/28 08:42:12;;;;;;;3.90;0.88;;;;;;;;;;4986431;28;20089;-75
2021/09/28 08:44:37;;;;;;;2.20;0.80;;;;;;;;;;4992081;28;20032;-76
2021/09/28 08:47:03;;;;;;;2.33;1.00;;;;;;;;;;4991850;28;20528;-74
2021/09/28 08:49:28;;;;;;;1.55;0.63;;;;;;;;;;4975008;28;20457;-73
2021/09/28 08:51:53;;;;;;;3.38;1.02;;;;;;;;;;4991058;28;20026;-72
2021/09/28 08:54:19;;;;;;;4.40;0.93;;;;;;;;;;4969486;28;20461;-74
2021/09/28 08:56:45;;;;;;;2.53;0.80;;;;;;;;;;4971690;28;20093;-73
2021/09/28 08:59:18;;;;;;;3.20;1.05;;;;;;;;;;4987207;28;20038;-73
2021/09/28 09:01:54;;;;;;;2.60;0.85;;;;;;;;;;4990324;28;20165;-73
2021/09/28 09:04:20;;;;;;;2.88;1.30;;;;;;;;;;4990237;28;20057;-74
2021/09/28 09:06:46;;;;;;;3.78;1.10;;;;;;;;;;4989122;28;20049;-75
2021/09/28 09:09:12;;;;;;;2.80;1.30;;;;;;;;;;4991924;28;20440;-72
2021/09/28 09:11:38;;;;;;;2.38;1.27;;;;;;;;;;4990697;28;20501;-72
2021/09/28 09:14:12;;;;;;;5.05;1.42;;;;;;;;;;4991365;28;20022;-74
2021/09/28 09:16:38;;;;;;;2.20;1.30;;;;;;;;;;4988995;28;20019;-73
2021/09/28 09:19:14;;;;;;;2.28;1.10;;;;;;;;;;4991568;28;20288;-75
2021/09/28 09:21:48;;;;;;;2.22;0.90;;;;;;;;;;4989694;28;20086;-75
2021/09/28 09:24:33;;;;;;;3.40;1.60;;;;;;;;;;4983351;28;20022;-76
2021/09/28 09:26:58;;;;;;;3.22;1.10;;;;;;;;;;5000647;28;20116;-73
2021/09/28 09:29:23;;;;;;;4.38;1.83;;;;;;;;;;4988540;28;20022;-72
2021/09/28 09:31:53;;;;;;;2.47;1.45;;;;;;;;;;4990231;28;20038;-74
2021/09/28 09:34:21;;;;;;;3.22;1.40;;;;;;;;;;4985864;28;20104;-73
2021/09/28 09:36:53;;;;;;;3.85;1.40;;;;;;;;;;4989323;28;20030;-73
2021/09/28 09:39:20;;;;;;;3.17;1.63;;;;;;;;;;4989569;28;20452;-72
2021/09/28 09:41:47;;;;;;;2.35;1.55;;;;;;;;;;4990140;28;20022;-73
2021/09/28 09:44:13;;;;;;;2.42;1.60;;;;;;;;;;4991674;28;20022;-74
2021/09/28 09:46:39;;;;;;;3.15;1.58;;;;;;;;;;4991733;28;20030;-73
2021/09/28 09:49:05;;;;;;;3.90;1.90;;;;;;;;;;4995387;28;20029;-73
2021/09/28 09:51:38;;;;;;;4.20;2.17;;;;;;;;;;4994600;28;20022;-75
2021/09/28 09:54:04;;;;;;;3.67;2.38;;;;;;;;;;4998711;28;20538;-73
2021/09/28 09:56:41;;;;;;;4.55;2.15;;;;;;;;;;5004977;28;20058;-72
2021/09/28 09:59:06;;;;;;;3.58;1.60;;;;;;;;;;4996330;28;20026;-73
2021/09/28 10:01:35;;;;;;;3.58;1.40;;;;;;;;;;4980869;28;20029;-73
2021/09/28 10:04:00;;;;;;;4.25;2.10;;;;;;;;;;4998316;28;20056;-72
2021/09/28 10:06:26;;;;;;;3.92;2.13;;;;;;;;;;5014504;28;20053;-72
2021/09/28 10:08:51;;;;;;;1.97;1.70;;;;;;;;;;4996917;28;20105;-72
2021/09/28 10:11:16;;;;;;;3.30;1.77;;;;;;;;;;5013825;28;20661;-72
2021/09/28 10:13:46;;;;;;;4.72;1.65;;;;;;;;;;5014825;28;20114;-73
2021/09/28 10:16:31;;;;;;;3.60;2.47;;;;;;;;;;5014760;28;20514;-73
2021/09/28 10:18:56;;;;;;;2.20;1.70;;;;;;;;;;5013968;28;20041;-72
2021/09/28 10:21:34;;;;;;;2.50;1.88;;;;;;;;;;5012542;28;20280;-74
2021/09/28 10:24:18;;;;;;;3.03;1.83;;;;;;;;;;4999500;28;20065;-74
2021/09/28 10:26:43;;;;;;;4.57;2.30;;;;;;;;;;5010567;28;20152;-74
2021/09/28 10:29:41;;;;;;;2.28;1.75;;;;;;;;;;5011870;28;20116;-74
2021/09/28 10:32:21;;;;;;;2.17;1.20;;;;;;;;;;4970815;28;20117;-75
2021/09/28 10:35:02;;;;;;;3.35;0.98;;;;;;;;;;4977389;28;20026;-73
2021/09/28 10:37:42;;;;;;;1.23;1.10;;;;;;;;;;4977480;28;20105;-75
2021/09/28 10:43:27;;;;;;;1.55;0.82;;;;;;;;;;5008690;28;20049;-72
2021/09/28 10:45:52;;;;;;;2.10;0.80;;;;;;;;;;5013408;28;20045;-72
2021/09/28 10:48:23;;;;;;;1.05;0.82;;;;;;;;;;5013314;28;20064;-73
2021/09/28 10:51:02;;;;;;;0.95;0.73;;;;;;;;;;5012725;28;20097;-72
2021/09/28 10:53:27;;;;;;;1.35;0.80;;;;;;;;;;5001544;28;20030;-72
2021/09/28 10:55:59;;;;;;;0.80;0.60;;;;;;;;;;5008281;28;20104;-72
2021/09/28 10:58:25;;;;;;;1.05;0.40;;;;;;;;;;4995780;28;20285;-73
2021/09/28 11:00:53;;;;;;;1.00;0.60;;;;;;;;;;5013295;28;20017;-72
2021/09/28 11:03:51;;;;;;;0.98;0.75;;;;;;;;;;4994368;28;20018;-72
2021/09/28 11:06:17;;;;;;;1.77;0.45;;;;;;;;;;4979358;28;20026;-72
2021/09/28 11:08:42;;;;;;;1.45;0.50;;;;;;;;;;4991479;28;20491;-73
2021/09/28 11:11:09;;;;;;;3.17;0.80;;;;;;;;;;4988277;28;20038;-72
2021/09/28 11:13:36;;;;;;;2.92;0.73;;;;;;;;;;5012374;28;20028;-73
2021/09/28 11:16:03;;;;;;;2.28;0.50;;;;;;;;;;4995231;28;20029;-73
2021/09/28 11:18:28;;;;;;;2.00;0.85;;;;;;;;;;4997459;28;20481;-72
2021/09/28 11:21:05;;;;;;;1.45;0.70;;;;;;;;;;5012179;28;20028;-72
2021/09/28 11:23:30;;;;;;;1.58;0.80;;;;;;;;;;5012616;28;20094;-72
2021/09/28 11:25:55;;;;;;;3.05;1.05;;;;;;;;;;5026287;28;20014;-72
2021/09/28 11:28:21;;;;;;;4.07;1.37;;;;;;;;;;5012292;28;20028;-72
2021/09/28 11:30:57;;;;;;;2.45;0.98;;;;;;;;;;5010742;28;20304;-72
2021/09/28 11:33:23;;;;;;;2.67;1.63;;;;;;;;;;4994700;28;20076;-72
2021/09/28 11:35:55;;;;;;;2.72;1.70;;;;;;;;;;4993839;28;20034;-72
2021/09/28 11:38:25;;;;;;;2.47;1.00;;;;;;;;;;5011636;28;20030;-72
2021/09/28 11:40:56;;;;;;;3.45;0.90;;;;;;;;;;4992410;28;20036;-72
2021/09/28 11:43:24;;;;;;;3.00;0.90;;;;;;;;;;4991576;28;20030;-72
2021/09/28 11:46:15;;;;;;;3.63;1.15;;;;;;;;;;5001446;28;20468;-74
2021/09/28 11:48:42;;;;;;;1.25;0.70;;;;;;;;;;5008045;28;20480;-73
2021/09/28 11:51:14;;;;;;;1.45;0.40;;;;;;;;;;4989529;28;20349;-75
2021/09/28 11:53:40;;;;;;;2.55;0.90;;;;;;;;;;4989647;28;20026;-74
2021/09/28 11:56:07;;;;;;;2.38;0.43;;;;;;;;;;5025261;28;20060;-74
2021/09/28 11:58:36;;;;;;;1.00;0.60;;;;;;;;;;4978765;28;20026;-74
2021/09/28 12:01:01;;;;;;;2.10;0.40;;;;;;;;;;4994868;28;20523;-77
2021/09/28 12:03:27;;;;;;;1.90;0.50;;;;;;;;;;4997172;28;20026;-74
2021/09/28 12:08:22;;;;;;;3.13;0.80;;;;;;;;;;5012705;28;20392;-74
2021/09/28 12:10:47;;;;;;;2.28;0.70;;;;;;;;;;4993764;28;20282;-74
2021/09/28 12:13:15;;;;;;;3.00;1.00;;;;;;;;;;5012398;28;20104;-75
2021/09/28 12:15:59;;;;;;;1.80;0.80;;;;;;;;;;5010752;28;20416;-74
2021/09/28 12:18:24;;;;;;;3.40;1.20;;;;;;;;;;5011981;28;20395;-74
2021/09/28 12:20:49;;;;;;;2.58;0.95;;;;;;;;;;4993393;28;20033;-74
2021/09/28 12:23:15;;;;;;;4.75;1.65;;;;;;;;;;5012213;28;20026;-75
2021/09/28 12:25:43;;;;;;;6.35;1.85;;;;;;;;;;5008406;28;20018;-75
2021/09/28 12:28:10;;;;;;;2.22;1.05;;;;;;;;;;5011506;28;20083;-73
2021/09/28 12:30:47;;;;;;;3.60;1.45;;;;;;;;;;5012288;28;20030;-74
2021/09/28 12:33:13;;;;;;;6.03;1.90;;;;;;;;;;4994847;28;20116;-75
2021/09/28 12:35:38;;;;;;;3.53;1.95;;;;;;;;;;5009398;28;20037;-75
2021/09/28 12:38:06;;;;;;;3.50;1.35;;;;;;;;;;4972944;28;20025;-75
2021/09/28 12:40:32;;;;;;;4.05;1.23;;;;;;;;;;5011741;28;20375;-75
2021/09/28 12:43:03;;;;;;;4.20;1.98;;;;;;;;;;5011891;28;20021;-74
2021/09/28 12:45:28;;;;;;;2.53;1.25;;;;;;;;;;5011460;28;20020;-74
2021/09/28 12:47:58;;;;;;;4.82;1.48;;;;;;;;;;4994171;28;20105;-75
2021/09/28 12:50:34;;;;;;;5.07;2.53;;;;;;;;;;4993536;28;20111;-74
2021/09/28 12:52:59;;;;;;;5.00;1.58;;;;;;;;;;5011188;28;20029;-75
2021/09/28 12:55:25;;;;;;;2.57;1.90;;;;;;;;;;5009154;28;20025;-75
2021/09/28 12:57:52;;;;;;;3.28;1.95;;;;;;;;;;5011164;28;20269;-75
2021/09/28 13:00:17;;;;;;;3.88;2.05;;;;;;;;;;5011320;28;20018;-74
2021/09/28 13:02:42;;;;;;;3.58;2.00;;;;;;;;;;4993578;28;20018;-74
2021/09/28 13:05:10;;;;;;;4.22;2.17;;;;;;;;;;4993176;28;20025;-74
2021/09/28 13:07:35;;;;;;;2.70;2.15;;;;;;;;;;4993870;28;20105;-75
2021/09/28 13:10:00;;;;;;;3.53;2.42;;;;;;;;;;5011004;28;20129;-74
2021/09/28 13:12:25;;;;;;;5.23;2.60;;;;;;;;;;4992732;28;20030;-73
2021/09/28 13:14:51;;;;;;;4.53;2.30;;;;;;;;;;5007538;28;20393;-75
2021/09/28 13:17:16;;;;;;;3.00;2.10;;;;;;;;;;5006798;28;20025;-74
2021/09/28 13:19:41;;;;;;;5.43;2.53;;;;;;;;;;5011045;28;20285;-72
2021/09/28 13:22:07;;;;;;;4.65;2.00;;;;;;;;;;4993238;28;20029;-73
2021/09/28 13:24:32;;;;;;;3.05;1.42;;;;;;;;;;4993997;28;20022;-74
2021/09/28 13:26:57;;;;;;;3.83;1.95;;;;;;;;;;4987795;28;20022;-76
2021/09/28 13:29:22;;;;;;;3.28;2.30;;;;;;;;;;5014349;28;20484;-74
2021/09/28 13:31:48;;;;;;;2.83;2.30;;;;;;;;;;5013921;28;20049;-75
2021/09/28 13:34:13;;;;;;;5.65;3.63;;;;;;;;;;5012274;28;20360;-75
2021/09/28 13:36:38;;;;;;;6.13;3.25;;;;;;;;;;5014535;28;20136;-76
2021/09/28 13:39:05;;;;;;;8.95;3.03;;;;;;;;;;4993417;28;20447;-74
2021/09/28 13:41:30;;;;;;;5.18;2.83;;;;;;;;;;5014012;28;20029;-74
2021/09/28 13:43:55;;;;;;;5.18;2.60;;;;;;;;;;5014584;28;20030;-76
2021/09/28 13:46:20;;;;;;;5.25;2.90;;;;;;;;;;4996950;28;20013;-73
2021/09/28 13:48:46;;;;;;;5.20;3.40;;;;;;;;;;4997277;28;20033;-73
2021/09/28 13:51:11;;;;;;;4.80;3.10;;;;;;;;;;4995562;28;20542;-74
2021/09/28 13:53:37;;;;;;;4.97;3.50;;;;;;;;;;5012851;28;20395;-74
2021/09/28 13:56:02;;;;;;;4.38;3.00;;;;;;;;;;5008596;28;20307;-73
2021/09/28 13:58:27;;;;;;;3.72;3.15;;;;;;;;;;4997913;28;20049;-74
2021/09/28 14:00:52;;;;;;;3.95;3.25;;;;;;;;;;4991120;28;20073;-74
2021/09/28 14:03:18;;;;;;;5.00;3.60;;;;;;;;;;5006506;28;20026;-74
2021/09/28 14:05:43;;;;;;;4.47;3.75;;;;;;;;;;4997840;28;20288;-74
2021/09/28 14:08:08;;;;;;;7.35;4.25;;;;;;;;;;5017878;28;20037;-74
2021/09/28 14:10:33;;;;;;;7.95;4.30;;;;;;;;;;4991673;28;20034;-74
2021/09/28 14:12:59;;;;;;;5.27;4.27;;;;;;;;;;5013532;28;20492;-74
2021/09/28 14:15:24;;;;;;;5.10;3.97;;;;;;;;;;5014489;28;20272;-75
2021/09/28 14:17:49;;;;;;;5.03;2.90;;;;;;;;;;5016411;28;20105;-74
2021/09/28 14:20:15;;;;;;;3.40;3.00;;;;;;;;;;5014014;28;20257;-75
2021/09/28 14:22:40;;;;;;;4.63;2.70;;;;;;;;;;4995974;28;20097;-74
2021/09/28 14:25:05;;;;;;;5.53;3.10;;;;;;;;;;4984879;28;20385;-74
2021/09/28 14:27:30;;;;;;;5.85;3.15;;;;;;;;;;5003231;28;20464;-75
2021/09/28 14:29:56;;;;;;;5.07;2.60;;;;;;;;;;5004732;28;20105;-74
2021/09/28 14:32:21;;;;;;;7.45;2.92;;;;;;;;;;5007143;28;20029;-75
2021/09/28 14:34:46;;;;;;;3.17;2.53;;;;;;;;;;4996145;28;20176;-75
2021/09/28 14:37:13;;;;;;;4.05;2.45;;;;;;;;;;4993233;28;22286;-75
2021/09/28 14:39:39;;;;;;;3.47;1.90;;;;;;;;;;5008081;28;20419;-74
2021/09/28 14:42:04;;;;;;;4.07;2.30;;;;;;;;;;5011718;28;20022;-75